Sortavala, Russia
Current Conditions -  °F | °C
As of 2:50 PM on Wednesday 28 Jan 2015 (Local Time) from EFSA Reporting Station
Overcast Overcast  
Wind Chill: 21°   Ceiling: 1200
Heat Index: 30°   Visibility: 6mi
Dew Point: 27°   Wind: 10mph
Humidity: 86%   Direction: 190°S
Pressure: 29.38"   Gusts: 24mph
Location:  61.7°N, 30.68°E
Report Text: EFSA 281150Z AUTO 19009G21KT 140V230 9999 OVC012 M01/M03 Q0995
Loading
Personal Weather Stations






























Interactive Weather Map New forecast layout! Learn more

10-Day Weather Forecast

Advertisements
Track Severe Weather on mobile